Time;durP1;ratioP1;P1;durP2;ratioP2;P2;SDS_P1;SDS_P2;PMS_P1;PMS_P2;Temp;Humidity;BMP_temperature;BMP_pressure;BME280_temperature;BME280_humidity;BME280_pressure;Samples;Min_cycle;Max_cycle;Signal;HPM_P1;HPM_P2
2024/03/04 00:00:03;;;;;;;26.17;17.35;;;;;;;12.00;40.06;100182.16;5125308;28;20044;-84
2024/03/04 00:02:31;;;;;;;28.15;17.90;;;;;;;11.97;40.38;100171.47;5121466;28;20047;-83
2024/03/04 00:05:00;;;;;;;27.58;18.02;;;;;;;11.97;40.37;100185.19;5096131;28;20035;-83
2024/03/04 00:07:29;;;;;;;28.08;18.08;;;;;;;11.98;40.07;100189.66;5094628;28;20043;-83
2024/03/04 00:09:57;;;;;;;25.83;17.35;;;;;;;11.97;40.36;100189.81;5101083;28;20411;-84
2024/03/04 00:12:25;;;;;;;27.63;17.85;;;;;;;11.97;40.04;100196.16;5097918;28;20042;-83
2024/03/04 00:14:55;;;;;;;27.20;18.10;;;;;;;11.97;40.06;100192.56;5092510;28;20042;-84
2024/03/04 00:17:25;;;;;;;24.30;16.92;;;;;;;11.94;40.24;100207.47;5093239;28;20089;-84
2024/03/04 00:19:54;;;;;;;25.88;16.98;;;;;;;11.93;40.45;100202.13;5090453;28;20047;-84
2024/03/04 00:22:22;;;;;;;26.95;17.63;;;;;;;11.92;40.34;100208.66;5099285;28;20059;-84
2024/03/04 00:24:50;;;;;;;25.63;16.63;;;;;;;11.93;40.21;100218.59;5112787;28;20513;-84
2024/03/04 00:27:18;;;;;;;25.70;17.40;;;;;;;11.92;40.17;100219.59;5111296;28;20483;-83
2024/03/04 00:29:46;;;;;;;27.30;17.67;;;;;;;11.90;40.18;100221.63;5111964;28;20171;-83
2024/03/04 00:32:15;;;;;;;28.15;17.95;;;;;;;11.91;40.37;100228.84;5093018;28;20059;-83
2024/03/04 00:34:43;;;;;;;27.58;18.02;;;;;;;11.86;40.85;100237.56;5093932;28;20043;-83
2024/03/04 00:37:12;;;;;;;26.20;17.50;;;;;;;11.88;40.17;100234.69;5092547;28;20043;-83
2024/03/04 00:39:40;;;;;;;27.20;18.23;;;;;;;11.87;40.28;100244.78;5115668;27;20047;-83
2024/03/04 00:42:08;;;;;;;26.58;17.35;;;;;;;11.85;40.71;100243.19;5093564;28;20165;-83
2024/03/04 00:44:36;;;;;;;27.42;17.52;;;;;;;11.83;40.90;100247.97;5092753;28;20080;-84
2024/03/04 00:47:05;;;;;;;26.13;16.63;;;;;;;11.83;40.72;100237.88;5112539;27;20040;-83
2024/03/04 00:49:34;;;;;;;25.58;16.58;;;;;;;11.84;40.82;100245.09;5111900;28;20085;-83
2024/03/04 00:52:03;;;;;;;24.02;16.80;;;;;;;11.81;40.81;100250.00;5123717;27;20063;-83
2024/03/04 00:54:31;;;;;;;28.08;17.38;;;;;;;11.78;40.95;100256.69;5112256;27;20576;-82
2024/03/04 00:56:58;;;;;;;23.98;15.85;;;;;;;11.80;40.28;100251.88;5089375;28;20340;-83
2024/03/04 00:59:27;;;;;;;25.52;16.48;;;;;;;11.79;40.36;100260.28;5109639;28;20089;-83
2024/03/04 01:01:56;;;;;;;25.27;15.48;;;;;;;11.78;40.46;100264.03;5111405;28;20039;-85
2024/03/04 01:04:24;;;;;;;24.33;15.73;;;;;;;11.77;40.99;100263.19;5119413;28;20063;-83
2024/03/04 01:06:54;;;;;;;23.77;15.23;;;;;;;11.77;40.62;100267.81;5104194;28;20044;-84
2024/03/04 01:09:22;;;;;;;22.85;15.13;;;;;;;11.77;40.75;100271.41;5124025;28;20457;-84
2024/03/04 01:11:50;;;;;;;21.98;14.15;;;;;;;11.77;40.66;100276.88;5123863;28;20055;-84
2024/03/04 01:14:17;;;;;;;21.73;14.57;;;;;;;11.77;40.87;100276.03;5120157;28;20112;-84
2024/03/04 01:16:48;;;;;;;22.30;14.13;;;;;;;11.78;40.73;100280.50;5111336;28;20086;-84
2024/03/04 01:19:17;;;;;;;22.27;14.98;;;;;;;11.78;40.57;100289.59;5101256;28;20162;-83
2024/03/04 01:21:47;;;;;;;22.15;14.23;;;;;;;11.79;40.70;100295.94;5087071;28;20039;-84
2024/03/04 01:24:17;;;;;;;22.70;15.07;;;;;;;11.78;40.99;100284.09;5095341;28;20127;-83
2024/03/04 01:26:45;;;;;;;23.00;14.68;;;;;;;11.78;40.94;100299.69;5095730;28;20075;-84
2024/03/04 01:29:13;;;;;;;22.05;13.68;;;;;;;11.77;40.51;100296.09;5107469;28;20069;-84
2024/03/04 01:31:40;;;;;;;19.80;13.50;;;;;;;11.76;40.62;100285.25;5098310;28;20050;-84
2024/03/04 01:34:08;;;;;;;21.13;13.15;;;;;;;11.74;40.96;100291.75;5110471;28;20092;-85
2024/03/04 01:36:37;;;;;;;19.02;13.25;;;;;;;11.71;40.90;100293.97;5126887;27;20115;-83
2024/03/04 01:39:05;;;;;;;18.80;12.43;;;;;;;11.71;41.09;100292.09;5092367;28;20138;-84
2024/03/04 01:41:36;;;;;;;17.15;11.90;;;;;;;11.73;41.21;100305.63;5093235;28;20058;-85
2024/03/04 01:44:04;;;;;;;19.50;12.02;;;;;;;11.68;40.40;100306.09;5108900;27;20042;-83
2024/03/04 01:46:32;;;;;;;17.73;12.68;;;;;;;11.66;41.01;100315.47;5092681;28;20046;-84
2024/03/04 01:49:01;;;;;;;18.02;11.82;;;;;;;11.64;41.01;100309.28;5093043;28;20048;-84
2024/03/04 01:51:29;;;;;;;18.50;12.25;;;;;;;11.64;41.10;100314.75;5111279;28;20069;-84
2024/03/04 01:53:58;;;;;;;19.00;12.20;;;;;;;11.63;40.91;100321.28;5095667;28;20054;-85
2024/03/04 01:56:26;;;;;;;16.77;11.55;;;;;;;11.62;40.72;100325.91;5120255;28;20122;-84
2024/03/04 01:58:56;;;;;;;18.45;12.40;;;;;;;11.62;41.54;100328.66;5094730;28;20407;-84
2024/03/04 02:01:27;;;;;;;18.33;11.50;;;;;;;11.61;40.84;100337.88;5110096;28;20035;-84
2024/03/04 02:03:55;;;;;;;17.42;11.35;;;;;;;11.59;40.73;100323.44;5110695;28;20515;-84
2024/03/04 02:06:24;;;;;;;18.05;12.18;;;;;;;11.59;40.93;100320.69;5095141;28;20438;-84
2024/03/04 02:08:52;;;;;;;15.65;10.70;;;;;;;11.59;41.00;100322.56;5107752;28;20118;-84
2024/03/04 02:11:20;;;;;;;16.48;11.25;;;;;;;11.59;41.28;100325.31;5094439;28;20059;-83
2024/03/04 02:13:49;;;;;;;15.00;10.73;;;;;;;11.58;40.92;100331.81;5113509;28;20039;-83
2024/03/04 02:16:18;;;;;;;15.95;10.30;;;;;;;11.57;41.00;100324.59;5126228;28;20062;-84
2024/03/04 02:18:46;;;;;;;15.45;10.15;;;;;;;11.55;41.00;100340.34;5089047;28;20298;-84
2024/03/04 02:21:16;;;;;;;15.40;10.40;;;;;;;11.56;40.88;100342.03;5094246;28;20071;-83
2024/03/04 02:23:45;;;;;;;14.98;10.27;;;;;;;11.54;40.98;100338.63;5117257;28;20110;-82
2024/03/04 02:26:13;;;;;;;15.15;9.90;;;;;;;11.52;41.20;100341.50;5126970;28;20039;-82
2024/03/04 02:28:41;;;;;;;14.13;9.45;;;;;;;11.51;41.21;100347.13;5137020;27;20075;-83
2024/03/04 02:31:10;;;;;;;13.02;9.00;;;;;;;11.51;41.00;100341.66;5119650;28;20528;-84
2024/03/04 02:33:42;;;;;;;13.80;9.70;;;;;;;11.48;40.98;100352.91;5121078;28;20050;-83
2024/03/04 02:36:10;;;;;;;12.93;8.88;;;;;;;11.47;41.00;100349.31;5112221;28;20044;-83
2024/03/04 02:38:39;;;;;;;12.50;8.73;;;;;;;11.46;40.94;100357.72;5112538;28;20335;-84
2024/03/04 02:41:09;;;;;;;14.05;8.65;;;;;;;11.44;40.94;100348.78;5117979;28;20112;-85
2024/03/04 02:43:37;;;;;;;13.85;8.15;;;;;;;11.40;41.06;100350.94;5110536;28;20055;-83
2024/03/04 02:46:05;;;;;;;14.70;8.68;;;;;;;11.39;41.48;100357.44;5132610;28;20051;-83
2024/03/04 02:48:33;;;;;;;12.80;9.38;;;;;;;11.36;41.05;100357.75;5116115;27;20041;-83
2024/03/04 02:51:01;;;;;;;11.63;8.18;;;;;;;11.35;41.12;100356.88;5097833;28;20103;-83
2024/03/04 02:53:29;;;;;;;12.73;8.63;;;;;;;11.34;41.06;100359.78;5113690;28;20077;-83
2024/03/04 02:55:57;;;;;;;13.82;8.07;;;;;;;11.34;41.29;100368.84;5130599;28;20030;-83
2024/03/04 02:58:27;;;;;;;11.73;8.05;;;;;;;11.34;41.12;100368.84;5135800;28;20053;-84
2024/03/04 03:00:55;;;;;;;10.65;7.68;;;;;;;11.32;41.33;100372.75;5140148;27;20047;-83
2024/03/04 03:03:24;;;;;;;11.30;7.70;;;;;;;11.31;41.67;100374.63;5131802;28;20077;-84
2024/03/04 03:05:52;;;;;;;11.15;7.32;;;;;;;11.30;41.34;100375.66;5130761;28;20040;-83
2024/03/04 03:08:19;;;;;;;12.45;7.85;;;;;;;11.29;41.55;100382.16;5095876;28;20067;-84
2024/03/04 03:10:47;;;;;;;10.98;7.30;;;;;;;11.30;41.59;100388.50;5114642;28;20078;-84
2024/03/04 03:13:15;;;;;;;11.02;7.18;;;;;;;11.30;41.06;100399.47;5113792;28;20147;-84
2024/03/04 03:15:45;;;;;;;11.63;7.50;;;;;;;11.29;41.32;100403.22;5115688;27;20400;-83
2024/03/04 03:18:13;;;;;;;9.75;6.60;;;;;;;11.27;41.54;100407.97;5095911;28;20096;-83
2024/03/04 03:20:41;;;;;;;9.27;6.00;;;;;;;11.27;41.36;100414.31;5095949;28;20058;-82
2024/03/04 03:23:09;;;;;;;9.20;5.68;;;;;;;11.26;41.10;100418.06;5095775;28;20038;-83
2024/03/04 03:25:37;;;;;;;10.05;6.72;;;;;;;11.25;41.51;100419.06;5112478;28;20103;-83
2024/03/04 03:28:05;;;;;;;10.25;6.22;;;;;;;11.23;41.17;100428.44;5109869;28;20074;-83
2024/03/04 03:30:33;;;;;;;9.23;5.75;;;;;;;11.22;40.97;100430.34;5113649;28;20063;-84
2024/03/04 03:33:03;;;;;;;9.60;5.10;;;;;;;11.23;40.88;100423.81;5092014;28;20098;-85
2024/03/04 03:35:31;;;;;;;8.35;4.95;;;;;;;11.20;41.06;100432.34;5112422;28;20062;-84
2024/03/04 03:37:59;;;;;;;7.97;4.80;;;;;;;11.20;41.18;100439.72;5093694;28;20582;-85
2024/03/04 03:40:27;;;;;;;7.43;5.00;;;;;;;11.17;40.85;100435.38;5121467;28;20475;-84
2024/03/04 03:42:55;;;;;;;7.68;4.55;;;;;;;11.16;41.23;100441.88;5109742;28;20039;-83
2024/03/04 03:45:23;;;;;;;8.07;4.85;;;;;;;11.16;40.83;100446.47;5094638;28;20480;-82
2024/03/04 03:47:51;;;;;;;6.40;4.55;;;;;;;11.13;41.03;100455.88;5095860;28;20032;-83
2024/03/04 03:50:20;;;;;;;7.93;4.88;;;;;;;11.14;40.83;100462.22;5126704;27;20139;-83
2024/03/04 03:52:48;;;;;;;7.13;4.40;;;;;;;11.09;41.21;100457.16;5113011;28;20047;-83
2024/03/04 03:55:16;;;;;;;6.78;4.55;;;;;;;11.08;40.92;100469.13;5124300;27;20308;-82
2024/03/04 03:57:44;;;;;;;7.75;4.63;;;;;;;11.09;40.78;100480.94;5094675;28;20093;-84
2024/03/04 04:00:25;;;;;;;6.93;4.00;;;;;;;11.06;40.64;100490.31;5094386;28;20142;-85
2024/03/04 04:02:56;;;;;;;8.18;4.50;;;;;;;11.06;40.96;100471.16;5093515;28;20597;-84
2024/03/04 04:05:26;;;;;;;6.63;3.92;;;;;;;11.06;40.83;100479.38;5113354;28;20115;-83
2024/03/04 04:07:54;;;;;;;7.10;4.03;;;;;;;11.03;41.03;100482.41;5107663;28;20039;-84
2024/03/04 04:10:22;;;;;;;7.80;4.53;;;;;;;11.04;40.80;100489.63;5095185;28;20118;-83
2024/03/04 04:12:51;;;;;;;8.00;4.45;;;;;;;11.03;40.81;100493.38;5113910;28;20464;-83
2024/03/04 04:15:19;;;;;;;7.47;4.50;;;;;;;11.02;41.16;100494.38;5117089;27;20068;-84
2024/03/04 04:17:47;;;;;;;7.22;4.03;;;;;;;11.01;41.01;100495.38;5114774;28;20473;-83
2024/03/04 04:20:15;;;;;;;7.10;4.65;;;;;;;11.00;41.18;100496.38;5115201;28;20123;-84
2024/03/04 04:22:45;;;;;;;7.60;4.55;;;;;;;11.01;41.10;100500.00;5092122;28;20067;-84
2024/03/04 04:25:14;;;;;;;8.45;4.72;;;;;;;10.98;41.17;100495.66;5132425;28;20043;-83
2024/03/04 04:27:42;;;;;;;7.35;4.50;;;;;;;10.98;40.82;100498.41;5121257;28;20128;-84
2024/03/04 04:30:11;;;;;;;7.05;4.80;;;;;;;10.96;40.99;100505.91;5102235;28;20035;-84
2024/03/04 04:32:39;;;;;;;8.63;4.80;;;;;;;10.95;41.29;100504.19;5120307;28;20039;-83
2024/03/04 04:35:07;;;;;;;7.25;4.35;;;;;;;10.95;40.72;100510.53;5096392;28;20415;-83
2024/03/04 04:37:35;;;;;;;8.00;4.50;;;;;;;10.93;40.86;100507.06;5095829;28;20035;-83
2024/03/04 04:40:06;;;;;;;8.50;4.53;;;;;;;10.95;41.11;100509.66;5090734;28;20047;-84
2024/03/04 04:42:34;;;;;;;6.88;4.20;;;;;;;10.93;41.17;100511.69;5097078;28;20201;-83
2024/03/04 04:45:02;;;;;;;7.40;4.38;;;;;;;10.93;41.05;100512.53;5128583;27;20054;-84
2024/03/04 04:47:30;;;;;;;9.02;5.20;;;;;;;10.94;40.93;100519.75;5091883;28;20048;-82
2024/03/04 04:49:58;;;;;;;7.75;4.45;;;;;;;10.94;41.03;100510.66;5113602;28;20043;-84
2024/03/04 04:52:28;;;;;;;6.85;4.07;;;;;;;10.96;40.93;100517.75;5116921;27;20111;-83
2024/03/04 04:54:56;;;;;;;7.82;4.55;;;;;;;10.94;40.92;100522.50;5096038;28;20039;-83
2024/03/04 04:57:26;;;;;;;8.82;5.15;;;;;;;10.95;40.98;100520.63;5096482;28;20160;-84
2024/03/04 04:59:54;;;;;;;8.57;5.00;;;;;;;10.94;41.16;100536.19;5108120;28;20040;-84
2024/03/04 05:02:22;;;;;;;7.65;4.47;;;;;;;10.93;40.99;100525.38;5107862;28;20498;-83
2024/03/04 05:04:50;;;;;;;7.85;5.00;;;;;;;10.92;41.06;100526.38;5108624;28;20058;-83
2024/03/04 05:07:26;;;;;;;7.55;4.70;;;;;;;10.89;41.42;100523.94;5126060;28;20135;-83
2024/03/04 05:09:55;;;;;;;8.15;5.03;;;;;;;10.92;41.06;100523.63;5108552;28;20098;-84
2024/03/04 05:12:23;;;;;;;7.70;4.82;;;;;;;10.91;41.03;100524.63;5106036;28;20056;-84
2024/03/04 05:14:52;;;;;;;8.50;4.75;;;;;;;10.93;41.00;100525.38;5123838;28;20039;-84
2024/03/04 05:17:21;;;;;;;7.53;5.03;;;;;;;10.88;41.21;100525.81;5098040;28;20043;-83
2024/03/04 05:19:49;;;;;;;7.45;4.80;;;;;;;10.88;41.30;100531.28;5094352;28;20479;-84
2024/03/04 05:22:18;;;;;;;7.18;4.80;;;;;;;10.88;41.42;100531.28;5113782;28;20043;-83
2024/03/04 05:24:46;;;;;;;7.93;5.35;;;;;;;10.87;41.30;100540.50;5098925;28;20059;-84
2024/03/04 05:27:14;;;;;;;9.07;5.13;;;;;;;10.87;40.91;100539.63;5110342;28;20044;-84
2024/03/04 05:29:42;;;;;;;8.00;4.88;;;;;;;10.86;41.15;100547.00;5093286;28;20096;-82
2024/03/04 05:32:11;;;;;;;10.05;5.13;;;;;;;10.87;41.25;100553.31;5109807;28;20040;-83
2024/03/04 05:34:40;;;;;;;8.07;4.68;;;;;;;10.85;41.59;100548.00;5090969;27;20035;-84
2024/03/04 05:37:08;;;;;;;10.60;5.22;;;;;;;10.84;41.57;100543.53;5112806;28;20487;-83
2024/03/04 05:39:36;;;;;;;8.10;5.05;;;;;;;10.84;41.53;100556.34;5097168;28;20056;-83
2024/03/04 05:42:04;;;;;;;7.93;5.05;;;;;;;10.85;41.72;100558.06;5113771;28;20105;-82
2024/03/04 05:44:32;;;;;;;8.57;5.50;;;;;;;10.84;41.75;100556.34;5093701;28;20032;-84
2024/03/04 05:47:00;;;;;;;8.13;4.60;;;;;;;10.82;41.23;100548.25;5124505;27;20047;-83
2024/03/04 05:49:32;;;;;;;7.28;4.45;;;;;;;10.84;41.71;100545.38;5097691;28;20327;-83
2024/03/04 05:52:00;;;;;;;8.55;5.07;;;;;;;10.83;41.29;100550.00;5122601;28;20040;-85
2024/03/04 05:54:28;;;;;;;7.53;4.43;;;;;;;10.82;41.54;100553.75;5098588;28;20125;-83
2024/03/04 05:56:56;;;;;;;7.97;4.60;;;;;;;10.80;41.72;100544.84;5104535;27;20507;-82
2024/03/04 05:59:24;;;;;;;7.40;4.60;;;;;;;10.81;41.38;100553.91;5093901;28;20039;-83
2024/03/04 06:01:51;;;;;;;7.05;4.88;;;;;;;10.79;41.58;100559.53;5111312;28;20039;-83
2024/03/04 06:04:19;;;;;;;7.20;4.55;;;;;;;10.79;41.82;100561.41;5093360;28;20067;-83
2024/03/04 06:06:49;;;;;;;6.72;4.43;;;;;;;10.80;41.95;100563.13;5100845;28;20046;-84
2024/03/04 06:09:18;;;;;;;8.05;4.85;;;;;;;10.77;41.81;100557.94;5099063;28;20035;-83
2024/03/04 06:11:46;;;;;;;7.10;4.70;;;;;;;10.77;41.88;100564.25;5099009;28;20048;-83
2024/03/04 06:14:14;;;;;;;8.02;4.60;;;;;;;10.77;41.56;100566.13;5093355;28;20036;-85
2024/03/04 06:16:42;;;;;;;7.90;4.80;;;;;;;10.77;41.75;100569.75;5087849;28;20040;-83
2024/03/04 06:19:10;;;;;;;5.95;4.50;;;;;;;10.75;41.87;100574.50;5096286;28;20065;-82
2024/03/04 06:21:38;;;;;;;7.63;4.95;;;;;;;10.78;41.68;100570.59;5103375;28;20069;-82
2024/03/04 06:24:08;;;;;;;6.65;4.70;;;;;;;10.78;42.24;100581.56;5092747;28;20075;-81
2024/03/04 06:26:39;;;;;;;6.97;4.57;;;;;;;10.78;41.83;100584.28;5092138;28;20055;-83
2024/03/04 06:29:08;;;;;;;8.75;4.80;;;;;;;10.77;41.88;100583.44;5099998;22;20048;-72
2024/03/04 06:31:38;;;;;;;9.02;5.00;;;;;;;10.75;41.82;100582.69;5081742;28;20040;-71
2024/03/04 06:34:06;;;;;;;8.15;4.72;;;;;;;10.74;41.90;100596.53;5084330;28;20036;-71
2024/03/04 06:36:49;;;;;;;9.35;5.03;;;;;;;10.72;41.60;100599.44;5083724;28;20048;-75
2024/03/04 06:39:20;;;;;;;9.05;5.22;;;;;;;10.73;41.72;100603.88;5059191;28;20123;-71
2024/03/04 06:41:48;;;;;;;8.35;4.72;;;;;;;10.70;41.60;100608.78;5083608;28;20044;-70
2024/03/04 06:44:16;;;;;;;7.15;5.00;;;;;;;10.69;41.65;100609.78;5082095;28;20503;-69
2024/03/04 06:46:44;;;;;;;8.98;5.35;;;;;;;10.67;41.65;100614.53;5061959;28;20571;-69
2024/03/04 06:49:12;;;;;;;8.05;4.78;;;;;;;10.66;42.16;100621.00;5065202;28;20044;-69
2024/03/04 06:51:41;;;;;;;8.73;5.38;;;;;;;10.64;42.06;100621.16;5083605;28;20124;-69
2024/03/04 06:54:10;;;;;;;8.85;4.80;;;;;;;10.62;42.19;100622.31;5064877;28;20454;-70
2024/03/04 06:56:39;;;;;;;8.23;4.85;;;;;;;10.62;42.09;100620.44;5063538;28;20051;-72
2024/03/04 06:59:08;;;;;;;8.95;4.60;;;;;;;10.60;42.40;100620.56;5075221;28;20124;-75
2024/03/04 07:01:36;;;;;;;8.13;4.75;;;;;;;10.60;42.09;100625.16;5062909;28;20062;-71
2024/03/04 07:04:04;;;;;;;8.25;4.72;;;;;;;10.60;42.56;100630.66;5078047;28;20048;-71
2024/03/04 07:06:32;;;;;;;8.35;4.80;;;;;;;10.60;42.38;100630.66;5074848;28;20045;-71
2024/03/04 07:09:00;;;;;;;7.95;4.85;;;;;;;10.60;42.24;100630.66;5084795;28;20086;-71
2024/03/04 07:11:28;;;;;;;8.40;5.05;;;;;;;10.59;42.37;100629.78;5053581;28;20063;-71
2024/03/04 07:13:57;;;;;;;8.30;4.97;;;;;;;10.64;42.28;100639.44;5080202;28;20032;-71
2024/03/04 07:16:25;;;;;;;9.05;5.68;;;;;;;10.62;42.11;100635.97;5080510;28;20044;-72
2024/03/04 07:18:53;;;;;;;8.65;4.90;;;;;;;10.61;42.50;100632.38;5083054;28;20395;-72
2024/03/04 07:21:21;;;;;;;8.70;5.45;;;;;;;10.63;42.50;100634.97;5066600;28;20450;-73
2024/03/04 07:23:49;;;;;;;7.78;5.82;;;;;;;10.63;42.35;100634.97;5085447;28;20045;-72
2024/03/04 07:26:20;;;;;;;9.65;5.40;;;;;;;10.65;42.54;100639.28;5081863;28;20044;-71
2024/03/04 07:28:48;;;;;;;9.20;5.43;;;;;;;10.63;42.36;100640.44;5070660;28;20495;-71
2024/03/04 07:31:17;;;;;;;10.95;5.97;;;;;;;10.65;42.16;100641.19;5081110;28;20048;-72
2024/03/04 07:33:46;;;;;;;10.43;5.78;;;;;;;10.63;42.30;100635.84;5068964;28;20044;-71
2024/03/04 07:36:15;;;;;;;9.43;5.88;;;;;;;10.64;42.28;100636.72;5085208;28;20147;-72
2024/03/04 07:38:44;;;;;;;10.00;5.82;;;;;;;10.63;42.28;100635.84;5083066;28;20131;-72
2024/03/04 07:41:12;;;;;;;9.43;5.78;;;;;;;10.63;42.52;100626.78;5083452;28;20043;-71
2024/03/04 07:43:41;;;;;;;8.95;5.40;;;;;;;10.63;42.30;100633.13;5068868;28;20052;-72
2024/03/04 07:46:10;;;;;;;10.60;5.90;;;;;;;10.63;42.59;100643.19;5082784;28;20530;-71
2024/03/04 07:48:39;;;;;;;10.90;5.25;;;;;;;10.65;42.56;100643.94;5065093;28;20044;-72
2024/03/04 07:51:07;;;;;;;8.43;5.20;;;;;;;10.62;42.66;100641.47;5082705;28;20349;-72
2024/03/04 07:53:35;;;;;;;9.77;5.55;;;;;;;10.61;42.53;100654.28;5062854;28;20059;-71
2024/03/04 07:56:04;;;;;;;8.48;5.53;;;;;;;10.61;42.63;100651.53;5082735;28;20562;-71
2024/03/04 07:58:35;;;;;;;8.80;5.75;;;;;;;10.60;42.22;100658.00;5066635;28;20478;-72
2024/03/04 08:01:04;;;;;;;9.13;5.57;;;;;;;10.59;42.58;100657.13;5061405;28;20056;-72
2024/03/04 08:03:33;;;;;;;8.48;4.95;;;;;;;10.57;42.71;100656.41;5061166;28;20039;-71
2024/03/04 08:06:02;;;;;;;8.77;5.40;;;;;;;10.59;42.24;100662.63;5085691;28;20061;-72
2024/03/04 08:08:30;;;;;;;8.75;5.22;;;;;;;10.57;42.41;100653.66;5080210;28;20110;-71
2024/03/04 08:10:58;;;;;;;7.95;4.90;;;;;;;10.55;42.61;100661.19;5084724;28;20032;-72
2024/03/04 08:13:27;;;;;;;7.05;4.95;;;;;;;10.55;42.52;100666.66;5077542;28;20052;-72
2024/03/04 08:15:56;;;;;;;8.07;5.05;;;;;;;10.55;42.73;100663.03;5080459;28;20051;-72
2024/03/04 08:18:24;;;;;;;7.20;4.88;;;;;;;10.53;42.64;100659.53;5057986;28;20059;-71
2024/03/04 08:20:54;;;;;;;7.78;5.00;;;;;;;10.53;42.48;100668.66;5087416;28;20064;-71
2024/03/04 08:23:23;;;;;;;9.50;4.80;;;;;;;10.54;42.68;100673.13;5086710;28;20047;-72
2024/03/04 08:25:51;;;;;;;8.48;4.90;;;;;;;10.51;42.11;100670.63;5059595;28;20103;-71
2024/03/04 08:28:19;;;;;;;7.80;5.22;;;;;;;10.52;42.30;100677.84;5082485;28;20123;-72
2024/03/04 08:31:04;;;;;;;6.40;4.60;;;;;;;10.51;42.28;100680.69;5087809;28;20124;-71
2024/03/04 08:33:32;;;;;;;6.20;4.60;;;;;;;10.49;42.17;100680.84;5084756;28;20063;-70
2024/03/04 08:36:00;;;;;;;7.35;4.43;;;;;;;10.50;42.50;100689.91;5077754;28;20040;-71
2024/03/04 08:38:29;;;;;;;9.13;4.95;;;;;;;10.52;42.21;100685.16;5082584;28;20073;-71
2024/03/04 08:40:57;;;;;;;7.80;4.43;;;;;;;10.49;42.33;100680.84;5087182;28;20485;-70
2024/03/04 08:43:25;;;;;;;7.95;5.03;;;;;;;10.49;42.49;100683.56;5079891;28;20059;-70
2024/03/04 08:45:53;;;;;;;7.68;4.80;;;;;;;10.51;42.38;100677.97;5080878;28;20058;-70
2024/03/04 08:48:22;;;;;;;6.38;4.30;;;;;;;10.51;42.29;100687.03;5069402;28;20051;-69
2024/03/04 08:50:50;;;;;;;6.88;4.65;;;;;;;10.54;42.59;100685.94;5066604;28;20565;-70
2024/03/04 08:53:18;;;;;;;6.65;4.35;;;;;;;10.54;42.34;100686.81;5082034;28;20043;-70
2024/03/04 08:55:48;;;;;;;6.43;4.30;;;;;;;10.57;42.81;100693.84;5085386;28;20058;-70
2024/03/04 08:58:16;;;;;;;6.28;4.20;;;;;;;10.57;42.57;100691.13;5084535;28;20162;-70
2024/03/04 09:00:44;;;;;;;7.15;4.18;;;;;;;10.57;42.62;100689.25;5087880;28;20055;-70
2024/03/04 09:03:11;;;;;;;6.55;3.80;;;;;;;10.56;42.70;100689.41;5067454;28;20233;-70
2024/03/04 09:05:41;;;;;;;6.00;3.80;;;;;;;10.58;42.52;100687.38;5084581;28;20116;-70
2024/03/04 09:08:11;;;;;;;6.43;4.18;;;;;;;10.57;42.17;100683.78;5062787;28;20127;-69
2024/03/04 09:10:40;;;;;;;6.70;4.15;;;;;;;10.58;42.35;100676.44;5060531;28;20459;-71
2024/03/04 09:13:09;;;;;;;5.03;3.50;;;;;;;10.60;42.56;100677.16;5081762;28;20032;-70
2024/03/04 09:15:37;;;;;;;5.45;3.35;;;;;;;10.59;42.23;100680.91;5078568;28;20506;-71
2024/03/04 09:18:06;;;;;;;7.05;3.72;;;;;;;10.60;42.15;100675.31;5064084;28;20097;-71
2024/03/04 09:20:34;;;;;;;6.28;4.00;;;;;;;10.62;42.70;100693.44;5083001;28;20050;-70
2024/03/04 09:23:02;;;;;;;6.50;4.15;;;;;;;10.63;42.65;100681.50;5086333;28;20063;-70
2024/03/04 09:25:30;;;;;;;7.00;3.95;;;;;;;10.65;42.30;100690.44;5065565;28;20067;-71
2024/03/04 09:27:58;;;;;;;5.60;3.63;;;;;;;10.64;42.13;100684.09;5082305;28;20588;-71
2024/03/04 09:30:27;;;;;;;6.65;4.07;;;;;;;10.68;42.28;100692.88;5083591;28;20043;-71
2024/03/04 09:32:55;;;;;;;7.00;3.92;;;;;;;10.67;42.28;100694.75;5067538;28;20138;-71
2024/03/04 09:35:23;;;;;;;6.32;3.72;;;;;;;10.67;42.29;100693.88;5085595;28;20460;-71
2024/03/04 09:37:51;;;;;;;6.13;3.80;;;;;;;10.68;42.63;100698.38;5082583;28;20109;-71
2024/03/04 09:40:19;;;;;;;6.80;4.28;;;;;;;10.69;42.52;100698.22;5083465;28;20040;-70
2024/03/04 09:42:48;;;;;;;6.40;3.75;;;;;;;10.69;42.38;100702.84;5084890;28;20424;-70
2024/03/04 09:45:19;;;;;;;6.70;4.05;;;;;;;10.70;42.36;100705.44;5068350;28;20159;-69
2024/03/04 09:47:52;;;;;;;8.20;4.20;;;;;;;10.72;42.07;100699.84;5061005;28;20052;-72
2024/03/04 09:50:22;;;;;;;7.53;4.10;;;;;;;10.70;41.85;100702.72;5084304;28;20412;-71
2024/03/04 09:52:51;;;;;;;7.53;4.18;;;;;;;10.70;41.97;100710.03;5083764;28;20517;-72
2024/03/04 09:55:19;;;;;;;8.77;5.18;;;;;;;10.69;42.11;100705.56;5085242;28;20464;-71
2024/03/04 09:57:47;;;;;;;7.30;4.47;;;;;;;10.70;42.35;100704.56;5079858;28;20048;-71
2024/03/04 10:00:16;;;;;;;6.75;4.88;;;;;;;10.70;42.16;100716.38;5078740;28;20448;-72
2024/03/04 10:02:45;;;;;;;8.48;5.38;;;;;;;10.70;42.07;100710.03;5081735;28;20043;-71
2024/03/04 10:05:15;;;;;;;9.37;5.90;;;;;;;10.71;42.00;100718.13;5086150;28;20388;-71
2024/03/04 10:07:43;;;;;;;10.05;5.82;;;;;;;10.70;42.37;100718.25;5081080;28;20036;-71
2024/03/04 10:10:12;;;;;;;10.57;5.88;;;;;;;10.71;42.40;100722.72;5086569;28;20050;-71
2024/03/04 10:12:40;;;;;;;8.50;5.25;;;;;;;10.71;42.18;100725.47;5080982;28;20059;-71
2024/03/04 10:15:10;;;;;;;7.07;4.88;;;;;;;10.72;41.84;100735.41;5081815;28;20396;-71
2024/03/04 10:17:41;;;;;;;8.77;5.13;;;;;;;10.71;42.20;100739.16;5079557;28;20048;-70
2024/03/04 10:20:13;;;;;;;7.55;4.75;;;;;;;10.71;41.75;100742.75;5077588;28;20036;-71
2024/03/04 10:22:44;;;;;;;7.80;4.53;;;;;;;10.70;42.40;100735.56;5082257;28;20048;-70
2024/03/04 10:25:14;;;;;;;9.38;5.75;;;;;;;10.71;42.03;100741.88;5064574;28;20123;-70
2024/03/04 10:27:43;;;;;;;8.55;5.32;;;;;;;10.71;41.94;100741.88;5081449;28;20433;-71
2024/03/04 10:30:13;;;;;;;8.75;5.50;;;;;;;10.71;42.18;100748.22;5061550;28;20037;-70
2024/03/04 10:32:46;;;;;;;7.95;5.22;;;;;;;10.73;42.18;100745.38;5081680;28;20063;-71
2024/03/04 10:35:15;;;;;;;8.48;5.30;;;;;;;10.69;42.14;100755.72;5080631;28;20519;-71
2024/03/04 10:37:45;;;;;;;9.70;5.20;;;;;;;10.72;41.91;100749.09;5085248;28;20566;-71
2024/03/04 10:40:13;;;;;;;8.60;5.70;;;;;;;10.71;41.94;100744.63;5083959;28;20064;-71
2024/03/04 10:42:45;;;;;;;8.43;5.25;;;;;;;10.72;42.17;100760.06;5081021;28;20127;-70
2024/03/04 10:45:14;;;;;;;7.35;4.72;;;;;;;10.70;42.01;100746.50;5051300;28;20044;-71
2024/03/04 10:47:44;;;;;;;8.13;4.85;;;;;;;10.70;42.25;100756.56;5082904;28;20036;-71
2024/03/04 10:50:14;;;;;;;8.25;4.97;;;;;;;10.68;42.21;100759.44;5082648;28;20348;-71
2024/03/04 10:52:43;;;;;;;7.25;5.00;;;;;;;10.69;41.61;100752.09;5089980;28;20066;-71
2024/03/04 10:55:13;;;;;;;7.22;5.03;;;;;;;10.69;42.18;100755.72;5069015;28;20062;-70
2024/03/04 10:57:44;;;;;;;8.82;5.03;;;;;;;10.69;41.79;100757.56;5087690;28;20649;-71
2024/03/04 11:00:25;;;;;;;7.35;4.57;;;;;;;10.68;41.82;100756.72;5087858;28;20036;-71
2024/03/04 11:03:04;;;;;;;6.68;4.68;;;;;;;10.68;41.89;100755.84;5085677;28;20051;-71
2024/03/04 11:05:33;;;;;;;8.77;5.28;;;;;;;10.66;41.97;100763.31;5071501;28;20126;-71
2024/03/04 11:08:05;;;;;;;8.48;5.00;;;;;;;10.66;42.03;100766.06;5086217;28;20044;-71
2024/03/04 11:10:39;;;;;;;7.07;4.80;;;;;;;10.65;42.24;100759.72;5083514;28;20041;-71
2024/03/04 11:13:15;;;;;;;7.18;4.88;;;;;;;10.66;41.66;100766.91;5083440;28;20046;-71
2024/03/04 11:15:50;;;;;;;7.30;4.93;;;;;;;10.66;41.97;100769.66;5083898;28;20128;-71
2024/03/04 11:18:33;;;;;;;6.50;4.38;;;;;;;10.67;41.73;100767.78;5065060;28;20157;-70
2024/03/04 11:21:01;;;;;;;;;;;;;;;10.36;42.17;100767.75;5081663;28;20401;-71
2024/03/04 11:23:30;;;;;;;8.50;4.10;;;;;;;10.58;41.99;100773.06;5083967;28;20061;-71
2024/03/04 11:26:00;;;;;;;6.30;4.25;;;;;;;10.63;41.76;100769.09;5078930;28;20067;-71
2024/03/04 11:28:29;;;;;;;7.43;4.75;;;;;;;10.64;41.88;100773.56;5081050;28;20123;-71